sensor_id;sensor_type;location;lat;lon;timestamp;temperature;humidity
1888;DHT22;944;51.574;6.980;2022-09-23T00:01:19;10.80;99.90
1888;DHT22;944;51.574;6.980;2022-09-23T00:03:47;10.70;99.90
1888;DHT22;944;51.574;6.980;2022-09-23T00:06:17;10.70;99.90
1888;DHT22;944;51.574;6.980;2022-09-23T00:08:46;10.70;99.90
1888;DHT22;944;51.574;6.980;2022-09-23T00:11:19;10.60;99.90
1888;DHT22;944;51.574;6.980;2022-09-23T00:13:56;10.60;99.90
1888;DHT22;944;51.574;6.980;2022-09-23T00:16:30;10.60;99.90
1888;DHT22;944;51.574;6.980;2022-09-23T00:19:03;10.70;99.90
1888;DHT22;944;51.574;6.980;2022-09-23T00:21:30;10.60;99.90
1888;DHT22;944;51.574;6.980;2022-09-23T00:24:03;10.70;99.90
1888;DHT22;944;51.574;6.980;2022-09-23T00:26:32;10.70;99.90
1888;DHT22;944;51.574;6.980;2022-09-23T00:28:59;10.70;99.90
1888;DHT22;944;51.574;6.980;2022-09-23T00:31:27;10.70;99.90
1888;DHT22;944;51.574;6.980;2022-09-23T00:33:58;10.60;99.90
1888;DHT22;944;51.574;6.980;2022-09-23T00:36:27;10.60;99.90
1888;DHT22;944;51.574;6.980;2022-09-23T00:38:56;10.60;99.90
1888;DHT22;944;51.574;6.980;2022-09-23T00:41:26;10.60;99.90
1888;DHT22;944;51.574;6.980;2022-09-23T00:43:54;10.60;99.90
1888;DHT22;944;51.574;6.980;2022-09-23T00:46:25;10.60;99.90
1888;DHT22;944;51.574;6.980;2022-09-23T00:48:56;10.80;99.90
1888;DHT22;944;51.574;6.980;2022-09-23T00:51:31;10.60;99.90
1888;DHT22;944;51.574;6.980;2022-09-23T00:54:00;10.60;99.90
1888;DHT22;944;51.574;6.980;2022-09-23T00:56:30;10.60;99.90
1888;DHT22;944;51.574;6.980;2022-09-23T00:58:59;10.70;99.90
1888;DHT22;944;51.574;6.980;2022-09-23T01:01:26;10.60;99.90
1888;DHT22;944;51.574;6.980;2022-09-23T01:03:54;10.50;99.90
1888;DHT22;944;51.574;6.980;2022-09-23T01:06:22;10.50;99.90
1888;DHT22;944;51.574;6.980;2022-09-23T01:08:50;10.50;99.90
1888;DHT22;944;51.574;6.980;2022-09-23T01:11:32;10.60;99.90
1888;DHT22;944;51.574;6.980;2022-09-23T01:14:18;10.50;99.90
1888;DHT22;944;51.574;6.980;2022-09-23T01:17:12;10.40;99.90
1888;DHT22;944;51.574;6.980;2022-09-23T01:20:20;10.40;99.90
1888;DHT22;944;51.574;6.980;2022-09-23T01:23:21;10.40;99.90
1888;DHT22;944;51.574;6.980;2022-09-23T01:26:33;10.40;99.90
1888;DHT22;944;51.574;6.980;2022-09-23T01:32:29;10.40;99.90
1888;DHT22;944;51.574;6.980;2022-09-23T01:35:06;10.30;99.90
1888;DHT22;944;51.574;6.980;2022-09-23T01:37:44;10.30;99.90
1888;DHT22;944;51.574;6.980;2022-09-23T01:40:20;10.20;99.90
1888;DHT22;944;51.574;6.980;2022-09-23T01:42:53;10.10;99.90
1888;DHT22;944;51.574;6.980;2022-09-23T01:45:28;10.10;99.90
1888;DHT22;944;51.574;6.980;2022-09-23T01:48:01;10.00;99.90
1888;DHT22;944;51.574;6.980;2022-09-23T01:50:37;10.00;99.90
1888;DHT22;944;51.574;6.980;2022-09-23T01:53:26;10.00;99.90
1888;DHT22;944;51.574;6.980;2022-09-23T01:56:01;10.00;99.90
1888;DHT22;944;51.574;6.980;2022-09-23T01:58:34;10.00;99.90
1888;DHT22;944;51.574;6.980;2022-09-23T02:01:05;10.00;99.90
1888;DHT22;944;51.574;6.980;2022-09-23T02:03:38;10.00;99.90
1888;DHT22;944;51.574;6.980;2022-09-23T02:06:11;9.90;99.90
1888;DHT22;944;51.574;6.980;2022-09-23T02:08:43;9.90;99.90
1888;DHT22;944;51.574;6.980;2022-09-23T02:11:17;9.90;99.90
1888;DHT22;944;51.574;6.980;2022-09-23T02:13:48;9.80;99.90
1888;DHT22;944;51.574;6.980;2022-09-23T02:16:24;9.80;99.90
1888;DHT22;944;51.574;6.980;2022-09-23T02:18:57;9.80;99.90
1888;DHT22;944;51.574;6.980;2022-09-23T02:21:31;9.80;99.90
1888;DHT22;944;51.574;6.980;2022-09-23T02:24:05;9.70;99.90
1888;DHT22;944;51.574;6.980;2022-09-23T02:26:38;9.70;99.90
1888;DHT22;944;51.574;6.980;2022-09-23T02:29:17;9.70;99.90
1888;DHT22;944;51.574;6.980;2022-09-23T02:31:52;9.70;99.90
1888;DHT22;944;51.574;6.980;2022-09-23T02:34:33;9.70;99.90
1888;DHT22;944;51.574;6.980;2022-09-23T02:37:10;9.60;99.90
1888;DHT22;944;51.574;6.980;2022-09-23T02:39:51;9.70;99.90
1888;DHT22;944;51.574;6.980;2022-09-23T02:42:25;9.60;99.90
1888;DHT22;944;51.574;6.980;2022-09-23T02:44:59;9.60;99.90
1888;DHT22;944;51.574;6.980;2022-09-23T02:47:30;9.70;99.90
1888;DHT22;944;51.574;6.980;2022-09-23T02:50:03;9.70;99.90
1888;DHT22;944;51.574;6.980;2022-09-23T02:52:31;9.70;99.90
1888;DHT22;944;51.574;6.980;2022-09-23T02:55:01;9.70;99.90
1888;DHT22;944;51.574;6.980;2022-09-23T02:57:28;9.70;99.90
1888;DHT22;944;51.574;6.980;2022-09-23T03:00:09;9.70;99.90
1888;DHT22;944;51.574;6.980;2022-09-23T03:05:35;9.60;99.90
1888;DHT22;944;51.574;6.980;2022-09-23T03:08:15;9.60;99.90
1888;DHT22;944;51.574;6.980;2022-09-23T03:10:55;9.50;99.90
1888;DHT22;944;51.574;6.980;2022-09-23T03:13:34;9.50;99.90
1888;DHT22;944;51.574;6.980;2022-09-23T03:16:11;9.50;99.90
1888;DHT22;944;51.574;6.980;2022-09-23T03:18:54;9.60;99.90
1888;DHT22;944;51.574;6.980;2022-09-23T03:21:32;9.50;99.90
1888;DHT22;944;51.574;6.980;2022-09-23T03:24:05;9.50;99.90
1888;DHT22;944;51.574;6.980;2022-09-23T03:26:41;9.40;99.90
1888;DHT22;944;51.574;6.980;2022-09-23T03:29:15;9.40;99.90
1888;DHT22;944;51.574;6.980;2022-09-23T03:31:43;9.40;99.90
1888;DHT22;944;51.574;6.980;2022-09-23T03:34:14;9.30;99.90
1888;DHT22;944;51.574;6.980;2022-09-23T03:36:53;9.30;99.90
1888;DHT22;944;51.574;6.980;2022-09-23T03:39:45;9.30;99.90
1888;DHT22;944;51.574;6.980;2022-09-23T03:42:18;9.30;99.90
1888;DHT22;944;51.574;6.980;2022-09-23T03:44:59;9.20;99.90
1888;DHT22;944;51.574;6.980;2022-09-23T03:47:41;9.20;99.90
1888;DHT22;944;51.574;6.980;2022-09-23T03:50:27;9.10;99.90
1888;DHT22;944;51.574;6.980;2022-09-23T03:53:18;9.10;99.90
1888;DHT22;944;51.574;6.980;2022-09-23T03:55:48;9.10;99.90
1888;DHT22;944;51.574;6.980;2022-09-23T03:58:17;9.00;99.90
1888;DHT22;944;51.574;6.980;2022-09-23T04:00:52;9.00;99.90
1888;DHT22;944;51.574;6.980;2022-09-23T04:03:24;8.90;99.90
1888;DHT22;944;51.574;6.980;2022-09-23T04:05:53;8.90;99.90
1888;DHT22;944;51.574;6.980;2022-09-23T04:08:22;8.90;99.90
1888;DHT22;944;51.574;6.980;2022-09-23T04:10:49;8.90;99.90
1888;DHT22;944;51.574;6.980;2022-09-23T04:13:20;8.80;99.90
1888;DHT22;944;51.574;6.980;2022-09-23T04:15:57;8.80;99.90
1888;DHT22;944;51.574;6.980;2022-09-23T04:18:25;8.80;99.90
1888;DHT22;944;51.574;6.980;2022-09-23T04:20:56;8.80;99.90
1888;DHT22;944;51.574;6.980;2022-09-23T04:23:34;8.70;99.90
1888;DHT22;944;51.574;6.980;2022-09-23T04:26:04;8.70;99.90
1888;DHT22;944;51.574;6.980;2022-09-23T04:28:38;8.70;99.90
1888;DHT22;944;51.574;6.980;2022-09-23T04:31:09;8.70;99.90
1888;DHT22;944;51.574;6.980;2022-09-23T04:33:45;8.70;99.90
1888;DHT22;944;51.574;6.980;2022-09-23T04:36:23;8.70;99.90
1888;DHT22;944;51.574;6.980;2022-09-23T04:39:02;8.60;99.90
1888;DHT22;944;51.574;6.980;2022-09-23T04:41:30;8.60;99.90
1888;DHT22;944;51.574;6.980;2022-09-23T04:43:57;8.80;99.90
1888;DHT22;944;51.574;6.980;2022-09-23T04:46:24;8.50;99.90
1888;DHT22;944;51.574;6.980;2022-09-23T04:48:51;8.60;99.90
1888;DHT22;944;51.574;6.980;2022-09-23T04:51:20;8.60;99.90
1888;DHT22;944;51.574;6.980;2022-09-23T04:53:50;8.50;99.90
1888;DHT22;944;51.574;6.980;2022-09-23T04:56:21;8.50;99.90
1888;DHT22;944;51.574;6.980;2022-09-23T04:58:49;8.50;99.90
1888;DHT22;944;51.574;6.980;2022-09-23T05:01:18;8.50;99.90
1888;DHT22;944;51.574;6.980;2022-09-23T05:03:49;8.50;99.90
1888;DHT22;944;51.574;6.980;2022-09-23T05:06:17;8.60;99.90
1888;DHT22;944;51.574;6.980;2022-09-23T05:08:47;8.60;99.90
1888;DHT22;944;51.574;6.980;2022-09-23T05:11:16;8.60;99.90
1888;DHT22;944;51.574;6.980;2022-09-23T05:13:45;8.60;99.90
1888;DHT22;944;51.574;6.980;2022-09-23T05:16:13;8.60;99.90
1888;DHT22;944;51.574;6.980;2022-09-23T05:18:42;8.60;99.90
1888;DHT22;944;51.574;6.980;2022-09-23T05:21:12;8.60;99.90
1888;DHT22;944;51.574;6.980;2022-09-23T05:23:40;8.60;99.90
1888;DHT22;944;51.574;6.980;2022-09-23T05:26:10;8.60;99.90
1888;DHT22;944;51.574;6.980;2022-09-23T05:28:38;8.70;99.90
1888;DHT22;944;51.574;6.980;2022-09-23T05:31:08;8.70;99.90
1888;DHT22;944;51.574;6.980;2022-09-23T05:33:39;8.50;99.90
1888;DHT22;944;51.574;6.980;2022-09-23T05:36:08;8.50;99.90
1888;DHT22;944;51.574;6.980;2022-09-23T05:38:35;8.50;99.90
1888;DHT22;944;51.574;6.980;2022-09-23T05:41:07;8.50;99.90
1888;DHT22;944;51.574;6.980;2022-09-23T05:43:37;8.50;99.90
1888;DHT22;944;51.574;6.980;2022-09-23T05:49:47;8.60;99.90
1888;DHT22;944;51.574;6.980;2022-09-23T05:52:14;8.70;99.90
1888;DHT22;944;51.574;6.980;2022-09-23T05:54:41;8.80;99.90
1888;DHT22;944;51.574;6.980;2022-09-23T05:57:08;8.90;99.90
1888;DHT22;944;51.574;6.980;2022-09-23T05:59:36;8.80;99.90
1888;DHT22;944;51.574;6.980;2022-09-23T06:02:03;9.00;99.90
1888;DHT22;944;51.574;6.980;2022-09-23T06:04:30;9.10;99.90
1888;DHT22;944;51.574;6.980;2022-09-23T06:07:01;9.00;99.90
1888;DHT22;944;51.574;6.980;2022-09-23T06:09:29;9.20;99.90
1888;DHT22;944;51.574;6.980;2022-09-23T06:12:02;9.20;99.90
1888;DHT22;944;51.574;6.980;2022-09-23T06:14:31;9.30;99.90
1888;DHT22;944;51.574;6.980;2022-09-23T06:16:59;9.40;99.90
1888;DHT22;944;51.574;6.980;2022-09-23T06:19:28;9.50;99.90
1888;DHT22;944;51.574;6.980;2022-09-23T06:22:01;9.60;99.90
1888;DHT22;944;51.574;6.980;2022-09-23T06:24:28;9.70;99.90
1888;DHT22;944;51.574;6.980;2022-09-23T06:26:56;9.80;99.90
1888;DHT22;944;51.574;6.980;2022-09-23T06:29:23;9.90;99.90
1888;DHT22;944;51.574;6.980;2022-09-23T06:31:50;10.10;99.90
1888;DHT22;944;51.574;6.980;2022-09-23T06:34:17;10.30;99.90
1888;DHT22;944;51.574;6.980;2022-09-23T06:40:27;10.70;99.90
1888;DHT22;944;51.574;6.980;2022-09-23T06:42:58;10.90;99.90
1888;DHT22;944;51.574;6.980;2022-09-23T06:45:30;11.30;99.90
1888;DHT22;944;51.574;6.980;2022-09-23T06:48:01;11.90;99.90
1888;DHT22;944;51.574;6.980;2022-09-23T06:50:42;12.30;99.90
1888;DHT22;944;51.574;6.980;2022-09-23T06:53:10;12.60;99.90
1888;DHT22;944;51.574;6.980;2022-09-23T06:55:39;12.80;99.90
1888;DHT22;944;51.574;6.980;2022-09-23T06:58:06;12.80;99.90
1888;DHT22;944;51.574;6.980;2022-09-23T07:00:33;12.90;99.90
1888;DHT22;944;51.574;6.980;2022-09-23T07:03:00;13.00;99.90
1888;DHT22;944;51.574;6.980;2022-09-23T07:05:27;13.00;99.90
1888;DHT22;944;51.574;6.980;2022-09-23T07:07:56;13.20;99.90
1888;DHT22;944;51.574;6.980;2022-09-23T07:10:26;13.20;99.90
1888;DHT22;944;51.574;6.980;2022-09-23T07:13:00;13.20;99.90
1888;DHT22;944;51.574;6.980;2022-09-23T07:15:27;13.20;99.90
1888;DHT22;944;51.574;6.980;2022-09-23T07:17:53;13.20;99.90
1888;DHT22;944;51.574;6.980;2022-09-23T07:20:21;13.20;99.90
1888;DHT22;944;51.574;6.980;2022-09-23T07:22:48;13.20;99.90
1888;DHT22;944;51.574;6.980;2022-09-23T07:25:16;13.20;99.90
1888;DHT22;944;51.574;6.980;2022-09-23T07:27:44;13.40;99.90
1888;DHT22;944;51.574;6.980;2022-09-23T07:30:13;13.50;99.90
1888;DHT22;944;51.574;6.980;2022-09-23T07:32:41;13.60;99.90
1888;DHT22;944;51.574;6.980;2022-09-23T07:35:11;13.70;99.90
1888;DHT22;944;51.574;6.980;2022-09-23T07:37:38;13.90;99.90
1888;DHT22;944;51.574;6.980;2022-09-23T07:40:05;13.80;99.90
1888;DHT22;944;51.574;6.980;2022-09-23T07:42:33;14.00;99.90
1888;DHT22;944;51.574;6.980;2022-09-23T07:48:43;14.00;99.90
1888;DHT22;944;51.574;6.980;2022-09-23T07:51:12;14.10;99.90
1888;DHT22;944;51.574;6.980;2022-09-23T07:53:45;14.30;99.90
1888;DHT22;944;51.574;6.980;2022-09-23T07:56:13;14.40;99.90
1888;DHT22;944;51.574;6.980;2022-09-23T07:58:39;14.50;99.90
1888;DHT22;944;51.574;6.980;2022-09-23T08:01:08;14.70;99.90
1888;DHT22;944;51.574;6.980;2022-09-23T08:03:36;14.60;99.90
1888;DHT22;944;51.574;6.980;2022-09-23T08:06:06;14.70;99.90
1888;DHT22;944;51.574;6.980;2022-09-23T08:08:34;14.70;99.90
1888;DHT22;944;51.574;6.980;2022-09-23T08:11:05;14.80;99.90
1888;DHT22;944;51.574;6.980;2022-09-23T08:13:34;14.80;99.90
1888;DHT22;944;51.574;6.980;2022-09-23T08:16:01;14.70;99.90
1888;DHT22;944;51.574;6.980;2022-09-23T08:18:30;14.70;99.90
1888;DHT22;944;51.574;6.980;2022-09-23T08:20:57;14.70;99.90
1888;DHT22;944;51.574;6.980;2022-09-23T08:23:28;14.60;99.90
1888;DHT22;944;51.574;6.980;2022-09-23T08:25:58;14.70;99.90
1888;DHT22;944;51.574;6.980;2022-09-23T08:28:27;14.70;99.90
1888;DHT22;944;51.574;6.980;2022-09-23T08:30:54;14.70;99.90
1888;DHT22;944;51.574;6.980;2022-09-23T08:33:21;14.70;99.90
1888;DHT22;944;51.574;6.980;2022-09-23T08:35:49;14.90;99.90
1888;DHT22;944;51.574;6.980;2022-09-23T08:38:16;15.00;99.90
1888;DHT22;944;51.574;6.980;2022-09-23T08:40:47;15.20;99.90
1888;DHT22;944;51.574;6.980;2022-09-23T08:43:19;15.20;99.90
1888;DHT22;944;51.574;6.980;2022-09-23T08:45:50;15.20;99.90
1888;DHT22;944;51.574;6.980;2022-09-23T08:48:26;15.40;99.90
1888;DHT22;944;51.574;6.980;2022-09-23T08:51:01;15.50;99.90
1888;DHT22;944;51.574;6.980;2022-09-23T08:53:33;15.60;99.90
1888;DHT22;944;51.574;6.980;2022-09-23T08:56:05;15.70;99.90
1888;DHT22;944;51.574;6.980;2022-09-23T08:58:44;15.70;99.90
1888;DHT22;944;51.574;6.980;2022-09-23T09:01:23;15.60;99.90
1888;DHT22;944;51.574;6.980;2022-09-23T09:03:53;15.50;99.90
1888;DHT22;944;51.574;6.980;2022-09-23T09:06:25;15.40;99.90
1888;DHT22;944;51.574;6.980;2022-09-23T09:08:57;15.20;99.90
1888;DHT22;944;51.574;6.980;2022-09-23T09:11:33;15.40;99.90
1888;DHT22;944;51.574;6.980;2022-09-23T09:14:13;15.50;99.90
1888;DHT22;944;51.574;6.980;2022-09-23T09:16:50;15.50;99.90
1888;DHT22;944;51.574;6.980;2022-09-23T09:23:07;15.70;99.90
1888;DHT22;944;51.574;6.980;2022-09-23T09:25:45;15.90;99.90
1888;DHT22;944;51.574;6.980;2022-09-23T09:28:22;15.90;99.90
1888;DHT22;944;51.574;6.980;2022-09-23T09:30:54;16.10;99.90
1888;DHT22;944;51.574;6.980;2022-09-23T09:37:06;16.20;99.90
1888;DHT22;944;51.574;6.980;2022-09-23T09:39:37;16.30;99.90
1888;DHT22;944;51.574;6.980;2022-09-23T09:42:04;16.30;99.90
1888;DHT22;944;51.574;6.980;2022-09-23T09:44:37;16.60;99.90
1888;DHT22;944;51.574;6.980;2022-09-23T09:47:19;16.80;99.90
1888;DHT22;944;51.574;6.980;2022-09-23T09:49:55;16.80;99.90
1888;DHT22;944;51.574;6.980;2022-09-23T09:56:05;16.50;99.90
1888;DHT22;944;51.574;6.980;2022-09-23T09:58:39;16.70;99.90
1888;DHT22;944;51.574;6.980;2022-09-23T10:01:23;16.80;99.90
1888;DHT22;944;51.574;6.980;2022-09-23T10:03:53;16.70;99.90
1888;DHT22;944;51.574;6.980;2022-09-23T10:06:22;16.70;99.90
1888;DHT22;944;51.574;6.980;2022-09-23T10:09:12;16.70;99.90
1888;DHT22;944;51.574;6.980;2022-09-23T10:15:27;16.80;99.90
1888;DHT22;944;51.574;6.980;2022-09-23T10:17:57;16.90;99.90
1888;DHT22;944;51.574;6.980;2022-09-23T10:24:15;16.90;99.90
1888;DHT22;944;51.574;6.980;2022-09-23T10:26:52;17.00;99.90
1888;DHT22;944;51.574;6.980;2022-09-23T10:29:49;17.20;99.90
1888;DHT22;944;51.574;6.980;2022-09-23T10:40:20;17.20;99.90
1888;DHT22;944;51.574;6.980;2022-09-23T10:43:32;17.40;99.90
1888;DHT22;944;51.574;6.980;2022-09-23T10:50:38;17.70;99.90
1888;DHT22;944;51.574;6.980;2022-09-23T11:02:09;17.60;99.90
1888;DHT22;944;51.574;6.980;2022-09-23T11:05:19;17.50;99.90
1888;DHT22;944;51.574;6.980;2022-09-23T11:08:15;17.70;99.90
1888;DHT22;944;51.574;6.980;2022-09-23T11:22:28;17.40;99.90
1888;DHT22;944;51.574;6.980;2022-09-23T11:25:46;17.40;99.90
1888;DHT22;944;51.574;6.980;2022-09-23T11:33:01;17.80;99.90
1888;DHT22;944;51.574;6.980;2022-09-23T11:53:53;18.80;99.90
1888;DHT22;944;51.574;6.980;2022-09-23T12:00:21;18.60;99.90
1888;DHT22;944;51.574;6.980;2022-09-23T12:03:05;18.70;99.90
1888;DHT22;944;51.574;6.980;2022-09-23T12:06:02;18.80;99.90
1888;DHT22;944;51.574;6.980;2022-09-23T12:09:20;18.40;99.90
1888;DHT22;944;51.574;6.980;2022-09-23T12:12:26;18.70;99.90
1888;DHT22;944;51.574;6.980;2022-09-23T12:18:52;18.90;99.90
1888;DHT22;944;51.574;6.980;2022-09-23T12:28:14;19.10;99.90
1888;DHT22;944;51.574;6.980;2022-09-23T12:30:44;19.10;99.90
1888;DHT22;944;51.574;6.980;2022-09-23T12:33:19;19.20;99.90
1888;DHT22;944;51.574;6.980;2022-09-23T12:35:50;19.20;99.90
1888;DHT22;944;51.574;6.980;2022-09-23T12:42:15;19.30;99.90
1888;DHT22;944;51.574;6.980;2022-09-23T12:44:45;19.30;99.90
1888;DHT22;944;51.574;6.980;2022-09-23T12:47:35;19.20;99.90
1888;DHT22;944;51.574;6.980;2022-09-23T12:57:09;18.90;99.90
1888;DHT22;944;51.574;6.980;2022-09-23T13:00:24;18.90;99.90
1888;DHT22;944;51.574;6.980;2022-09-23T13:06:42;18.80;99.90
1888;DHT22;944;51.574;6.980;2022-09-23T13:09:22;18.70;99.90
1888;DHT22;944;51.574;6.980;2022-09-23T13:15:38;18.60;99.90
1888;DHT22;944;51.574;6.980;2022-09-23T13:24:35;18.70;99.90
1888;DHT22;944;51.574;6.980;2022-09-23T13:27:23;18.80;99.90
1888;DHT22;944;51.574;6.980;2022-09-23T13:29:57;18.70;99.90
1888;DHT22;944;51.574;6.980;2022-09-23T13:33:01;18.80;99.90
1888;DHT22;944;51.574;6.980;2022-09-23T13:35:38;18.90;99.90
1888;DHT22;944;51.574;6.980;2022-09-23T13:42:19;18.90;99.90
1888;DHT22;944;51.574;6.980;2022-09-23T13:48:32;18.90;99.90
1888;DHT22;944;51.574;6.980;2022-09-23T13:51:07;18.90;99.90
1888;DHT22;944;51.574;6.980;2022-09-23T13:53:51;19.00;99.90
1888;DHT22;944;51.574;6.980;2022-09-23T13:56:24;19.10;99.90
1888;DHT22;944;51.574;6.980;2022-09-23T14:10:00;19.20;99.90
1888;DHT22;944;51.574;6.980;2022-09-23T14:12:50;19.00;99.90
1888;DHT22;944;51.574;6.980;2022-09-23T14:15:18;19.00;99.90
1888;DHT22;944;51.574;6.980;2022-09-23T14:30:01;18.90;99.90
1888;DHT22;944;51.574;6.980;2022-09-23T14:32:53;18.90;99.90
1888;DHT22;944;51.574;6.980;2022-09-23T14:35:37;18.70;99.90
1888;DHT22;944;51.574;6.980;2022-09-23T14:41:53;18.70;99.90
1888;DHT22;944;51.574;6.980;2022-09-23T14:52:24;18.30;99.90
1888;DHT22;944;51.574;6.980;2022-09-23T14:54:54;18.30;99.90
1888;DHT22;944;51.574;6.980;2022-09-23T14:57:26;18.20;99.90
1888;DHT22;944;51.574;6.980;2022-09-23T15:00:16;18.10;99.90
1888;DHT22;944;51.574;6.980;2022-09-23T15:03:24;18.10;99.90
1888;DHT22;944;51.574;6.980;2022-09-23T15:09:37;18.10;99.90
1888;DHT22;944;51.574;6.980;2022-09-23T15:16:26;17.90;99.90
1888;DHT22;944;51.574;6.980;2022-09-23T15:19:29;17.90;99.90
1888;DHT22;944;51.574;6.980;2022-09-23T15:22:13;17.90;99.90
1888;DHT22;944;51.574;6.980;2022-09-23T15:24:46;17.90;99.90
1888;DHT22;944;51.574;6.980;2022-09-23T15:27:28;17.90;99.90
1888;DHT22;944;51.574;6.980;2022-09-23T15:31:31;17.80;99.90
1888;DHT22;944;51.574;6.980;2022-09-23T15:33:10;17.80;99.90
1888;DHT22;944;51.574;6.980;2022-09-23T15:39:36;17.70;99.90
1888;DHT22;944;51.574;6.980;2022-09-23T15:45:34;17.50;99.90
1888;DHT22;944;51.574;6.980;2022-09-23T15:48:11;17.50;99.90
1888;DHT22;944;51.574;6.980;2022-09-23T15:50:49;17.40;99.90
1888;DHT22;944;51.574;6.980;2022-09-23T15:53:21;17.30;99.90
1888;DHT22;944;51.574;6.980;2022-09-23T15:59:51;17.30;99.90
1888;DHT22;944;51.574;6.980;2022-09-23T16:02:31;17.20;99.90
1888;DHT22;944;51.574;6.980;2022-09-23T16:08:49;17.20;99.90
1888;DHT22;944;51.574;6.980;2022-09-23T16:23:17;17.00;99.90
1888;DHT22;944;51.574;6.980;2022-09-23T16:26:11;16.90;99.90
1888;DHT22;944;51.574;6.980;2022-09-23T16:28:51;17.10;99.90
1888;DHT22;944;51.574;6.980;2022-09-23T16:31:20;16.80;99.90
1888;DHT22;944;51.574;6.980;2022-09-23T16:36:46;16.80;99.90
1888;DHT22;944;51.574;6.980;2022-09-23T16:39:19;16.80;99.90
1888;DHT22;944;51.574;6.980;2022-09-23T16:42:00;16.70;99.90
1888;DHT22;944;51.574;6.980;2022-09-23T16:44:27;16.50;99.90
1888;DHT22;944;51.574;6.980;2022-09-23T16:50:00;16.40;99.90
1888;DHT22;944;51.574;6.980;2022-09-23T16:52:34;16.30;99.90
1888;DHT22;944;51.574;6.980;2022-09-23T16:58:20;16.00;99.90
1888;DHT22;944;51.574;6.980;2022-09-23T17:00:58;15.90;99.90
1888;DHT22;944;51.574;6.980;2022-09-23T17:03:42;15.80;99.90
1888;DHT22;944;51.574;6.980;2022-09-23T17:06:11;15.70;99.90
1888;DHT22;944;51.574;6.980;2022-09-23T17:08:50;15.50;99.90
1888;DHT22;944;51.574;6.980;2022-09-23T17:15:11;15.40;99.90
1888;DHT22;944;51.574;6.980;2022-09-23T17:25:49;15.20;99.90
1888;DHT22;944;51.574;6.980;2022-09-23T17:28:59;15.10;99.90
1888;DHT22;944;51.574;6.980;2022-09-23T17:31:31;15.10;99.90
1888;DHT22;944;51.574;6.980;2022-09-23T17:34:13;15.10;99.90
1888;DHT22;944;51.574;6.980;2022-09-23T17:36:55;15.00;99.90
1888;DHT22;944;51.574;6.980;2022-09-23T17:47:12;15.00;99.90
1888;DHT22;944;51.574;6.980;2022-09-23T17:53:18;14.90;99.90
1888;DHT22;944;51.574;6.980;2022-09-23T18:03:10;14.70;99.90
1888;DHT22;944;51.574;6.980;2022-09-23T18:06:08;14.70;99.90
1888;DHT22;944;51.574;6.980;2022-09-23T18:12:35;14.70;99.90
1888;DHT22;944;51.574;6.980;2022-09-23T18:15:26;14.80;99.90
1888;DHT22;944;51.574;6.980;2022-09-23T18:18:04;14.70;99.90
1888;DHT22;944;51.574;6.980;2022-09-23T18:27:59;14.80;99.90
1888;DHT22;944;51.574;6.980;2022-09-23T18:42:20;14.70;99.90
1888;DHT22;944;51.574;6.980;2022-09-23T18:45:14;14.70;99.90
1888;DHT22;944;51.574;6.980;2022-09-23T18:48:25;14.60;99.90
1888;DHT22;944;51.574;6.980;2022-09-23T18:51:17;14.60;99.90
1888;DHT22;944;51.574;6.980;2022-09-23T18:54:09;14.60;99.90
1888;DHT22;944;51.574;6.980;2022-09-23T18:57:12;14.60;99.90
1888;DHT22;944;51.574;6.980;2022-09-23T19:07:35;14.60;99.90
1888;DHT22;944;51.574;6.980;2022-09-23T19:10:26;14.50;99.90
1888;DHT22;944;51.574;6.980;2022-09-23T19:12:54;14.50;99.90
1888;DHT22;944;51.574;6.980;2022-09-23T19:15:34;14.40;99.90
1888;DHT22;944;51.574;6.980;2022-09-23T19:18:09;14.40;99.90
1888;DHT22;944;51.574;6.980;2022-09-23T19:20:53;14.40;99.90
1888;DHT22;944;51.574;6.980;2022-09-23T19:23:31;14.30;99.90
1888;DHT22;944;51.574;6.980;2022-09-23T19:26:08;14.30;99.90
1888;DHT22;944;51.574;6.980;2022-09-23T19:28:51;14.30;99.90
1888;DHT22;944;51.574;6.980;2022-09-23T19:39:28;14.30;99.90
1888;DHT22;944;51.574;6.980;2022-09-23T19:42:09;14.30;99.90
1888;DHT22;944;51.574;6.980;2022-09-23T19:48:54;14.20;99.90
1888;DHT22;944;51.574;6.980;2022-09-23T20:06:51;14.10;99.90
1888;DHT22;944;51.574;6.980;2022-09-23T20:20:56;14.00;99.90
1888;DHT22;944;51.574;6.980;2022-09-23T20:27:30;13.80;99.90
1888;DHT22;944;51.574;6.980;2022-09-23T20:30:23;13.80;99.90
1888;DHT22;944;51.574;6.980;2022-09-23T20:40:26;13.80;99.90
1888;DHT22;944;51.574;6.980;2022-09-23T20:42:55;13.80;99.90
1888;DHT22;944;51.574;6.980;2022-09-23T20:56:39;13.90;99.90
1888;DHT22;944;51.574;6.980;2022-09-23T20:59:13;13.90;99.90
1888;DHT22;944;51.574;6.980;2022-09-23T21:08:54;13.80;99.90
1888;DHT22;944;51.574;6.980;2022-09-23T21:11:29;13.70;99.90
1888;DHT22;944;51.574;6.980;2022-09-23T21:21:59;13.80;99.90
1888;DHT22;944;51.574;6.980;2022-09-23T21:24:33;13.90;99.90
1888;DHT22;944;51.574;6.980;2022-09-23T21:27:17;13.90;99.90
1888;DHT22;944;51.574;6.980;2022-09-23T21:29:48;13.90;99.90
1888;DHT22;944;51.574;6.980;2022-09-23T21:32:35;14.00;99.90
1888;DHT22;944;51.574;6.980;2022-09-23T21:35:41;13.90;99.90
1888;DHT22;944;51.574;6.980;2022-09-23T21:42:28;13.90;99.90
1888;DHT22;944;51.574;6.980;2022-09-23T21:45:09;13.90;99.90
1888;DHT22;944;51.574;6.980;2022-09-23T21:59:06;13.90;99.90
1888;DHT22;944;51.574;6.980;2022-09-23T22:01:39;13.90;99.90
1888;DHT22;944;51.574;6.980;2022-09-23T22:04:15;13.90;99.90
1888;DHT22;944;51.574;6.980;2022-09-23T22:06:50;13.80;99.90
1888;DHT22;944;51.574;6.980;2022-09-23T22:09:19;13.90;99.90
1888;DHT22;944;51.574;6.980;2022-09-23T22:11:47;13.90;99.90
1888;DHT22;944;51.574;6.980;2022-09-23T22:14:38;13.90;99.90
1888;DHT22;944;51.574;6.980;2022-09-23T22:17:08;13.90;99.90
1888;DHT22;944;51.574;6.980;2022-09-23T22:19:38;13.90;99.90
1888;DHT22;944;51.574;6.980;2022-09-23T22:22:07;13.90;99.90
1888;DHT22;944;51.574;6.980;2022-09-23T22:24:41;13.90;99.90
1888;DHT22;944;51.574;6.980;2022-09-23T22:27:09;13.90;99.90
1888;DHT22;944;51.574;6.980;2022-09-23T22:29:42;13.80;99.90
1888;DHT22;944;51.574;6.980;2022-09-23T22:32:41;13.80;99.90
1888;DHT22;944;51.574;6.980;2022-09-23T22:35:15;13.80;99.90
1888;DHT22;944;51.574;6.980;2022-09-23T22:37:45;13.80;99.90
1888;DHT22;944;51.574;6.980;2022-09-23T22:40:35;13.80;99.90
1888;DHT22;944;51.574;6.980;2022-09-23T22:43:08;13.80;99.90
1888;DHT22;944;51.574;6.980;2022-09-23T22:45:37;13.90;99.90
1888;DHT22;944;51.574;6.980;2022-09-23T22:48:07;14.00;99.90
1888;DHT22;944;51.574;6.980;2022-09-23T22:50:47;14.00;99.90
1888;DHT22;944;51.574;6.980;2022-09-23T22:53:19;14.00;99.90
1888;DHT22;944;51.574;6.980;2022-09-23T22:55:56;14.00;99.90
1888;DHT22;944;51.574;6.980;2022-09-23T22:58:25;14.00;99.90
1888;DHT22;944;51.574;6.980;2022-09-23T23:00:55;13.90;99.90
1888;DHT22;944;51.574;6.980;2022-09-23T23:03:39;13.90;99.90
1888;DHT22;944;51.574;6.980;2022-09-23T23:06:24;13.90;99.90
1888;DHT22;944;51.574;6.980;2022-09-23T23:08:52;13.90;99.90
1888;DHT22;944;51.574;6.980;2022-09-23T23:11:24;13.90;99.90
1888;DHT22;944;51.574;6.980;2022-09-23T23:13:51;13.80;99.90
1888;DHT22;944;51.574;6.980;2022-09-23T23:16:30;13.80;99.90
1888;DHT22;944;51.574;6.980;2022-09-23T23:19:01;13.70;99.90
1888;DHT22;944;51.574;6.980;2022-09-23T23:21:31;13.80;99.90
1888;DHT22;944;51.574;6.980;2022-09-23T23:23:59;13.80;99.90
1888;DHT22;944;51.574;6.980;2022-09-23T23:26:31;13.70;99.90